Archival Weather

Chicago O'Hare International

Chicago, Illinois (KORD)

Report from: Wednesday, August 23, 2023 7:51 AM CDT
Current time: Monday, July 22, 2024 6:45 AM CDT

Current weather – Weather history – Daily summaries
Weather forecast

Temperature26.1°C (79.0°F)
Dew point25.0°C (77.0°F)
Winds 7 kts (3.6 m/s, 8.1 mph) West-Southwest (240°)
Visibility7 mi. (11.3 km)
Clouds Few clouds 1,500 ft. (457 m)
Few clouds 14,000 ft. (4,267 m)
Few clouds 25,000 ft. (7,620 m)
Altimeter30.01 in.Hg (1016 mB)
Relative humidity94 %
Density altitude1,626 ft. (496 m)
Sea-level pressure101.6 kPa (1016 mB, 29.99 in.Hg)
Remarks Automated weather observing station with precipitation discriminator
Flight conditions Visual Meteorological Conditions
Raw dataKORD 231251Z 24007KT 7SM FEW015 FEW140 FEW250 26/25 A3001 RMK AO2 SLP156 T02610250
An error has occurred. This application may no longer respond until reloaded. Reload 🗙